sensor_id;sensor_type;location;lat;lon;timestamp;temperature;humidity
69208;SHT31;70114;47.690;8.898;2023-10-19T00:02:05;10.80;84.91
69208;SHT31;70114;47.690;8.898;2023-10-19T00:04:30;10.68;85.42
69208;SHT31;70114;47.690;8.898;2023-10-19T00:06:58;10.81;85.01
69208;SHT31;70114;47.690;8.898;2023-10-19T00:09:23;10.81;84.84
69208;SHT31;70114;47.690;8.898;2023-10-19T00:11:50;10.80;85.01
69208;SHT31;70114;47.690;8.898;2023-10-19T00:14:17;10.81;84.82
69208;SHT31;70114;47.690;8.898;2023-10-19T00:16:44;10.77;85.44
69208;SHT31;70114;47.690;8.898;2023-10-19T00:19:16;10.84;84.63
69208;SHT31;70114;47.690;8.898;2023-10-19T00:21:45;10.87;84.61
69208;SHT31;70114;47.690;8.898;2023-10-19T00:24:17;10.88;84.89
69208;SHT31;70114;47.690;8.898;2023-10-19T00:26:43;10.90;84.60
69208;SHT31;70114;47.690;8.898;2023-10-19T00:29:09;10.85;85.52
69208;SHT31;70114;47.690;8.898;2023-10-19T00:31:53;10.90;84.51
69208;SHT31;70114;47.690;8.898;2023-10-19T00:34:21;10.78;85.94
69208;SHT31;70114;47.690;8.898;2023-10-19T00:36:46;10.67;86.09
69208;SHT31;70114;47.690;8.898;2023-10-19T00:39:13;10.64;86.56
69208;SHT31;70114;47.690;8.898;2023-10-19T00:41:42;10.77;85.52
69208;SHT31;70114;47.690;8.898;2023-10-19T00:44:08;10.84;84.87
69208;SHT31;70114;47.690;8.898;2023-10-19T00:46:37;10.84;84.75
69208;SHT31;70114;47.690;8.898;2023-10-19T00:49:07;10.85;84.83
69208;SHT31;70114;47.690;8.898;2023-10-19T00:51:47;10.90;84.77
69208;SHT31;70114;47.690;8.898;2023-10-19T00:54:38;10.88;85.18
69208;SHT31;70114;47.690;8.898;2023-10-19T00:57:07;10.95;85.02
69208;SHT31;70114;47.690;8.898;2023-10-19T00:59:38;10.94;85.02
69208;SHT31;70114;47.690;8.898;2023-10-19T01:02:23;10.95;85.00
69208;SHT31;70114;47.690;8.898;2023-10-19T01:04:53;11.01;84.68
69208;SHT31;70114;47.690;8.898;2023-10-19T01:07:26;11.00;84.61
69208;SHT31;70114;47.690;8.898;2023-10-19T01:09:56;11.01;84.88
69208;SHT31;70114;47.690;8.898;2023-10-19T01:12:26;11.02;85.06
69208;SHT31;70114;47.690;8.898;2023-10-19T01:15:17;11.01;84.62
69208;SHT31;70114;47.690;8.898;2023-10-19T01:17:47;10.97;85.52
69208;SHT31;70114;47.690;8.898;2023-10-19T01:20:28;11.02;84.83
69208;SHT31;70114;47.690;8.898;2023-10-19T01:22:55;11.01;85.07
69208;SHT31;70114;47.690;8.898;2023-10-19T01:28:08;11.04;84.73
69208;SHT31;70114;47.690;8.898;2023-10-19T01:30:36;11.05;84.42
69208;SHT31;70114;47.690;8.898;2023-10-19T01:33:04;11.08;84.83
69208;SHT31;70114;47.690;8.898;2023-10-19T01:35:30;11.05;84.54
69208;SHT31;70114;47.690;8.898;2023-10-19T01:38:14;11.07;84.34
69208;SHT31;70114;47.690;8.898;2023-10-19T01:40:39;11.02;84.41
69208;SHT31;70114;47.690;8.898;2023-10-19T01:43:14;11.08;84.64
69208;SHT31;70114;47.690;8.898;2023-10-19T01:45:46;10.98;85.29
69208;SHT31;70114;47.690;8.898;2023-10-19T01:48:12;10.98;84.88
69208;SHT31;70114;47.690;8.898;2023-10-19T01:50:39;11.04;84.66
69208;SHT31;70114;47.690;8.898;2023-10-19T01:53:05;11.07;84.59
69208;SHT31;70114;47.690;8.898;2023-10-19T01:55:38;11.05;84.75
69208;SHT31;70114;47.690;8.898;2023-10-19T01:58:03;11.05;84.86
69208;SHT31;70114;47.690;8.898;2023-10-19T02:00:29;11.05;84.53
69208;SHT31;70114;47.690;8.898;2023-10-19T02:02:54;10.83;86.10
69208;SHT31;70114;47.690;8.898;2023-10-19T02:05:21;10.98;84.93
69208;SHT31;70114;47.690;8.898;2023-10-19T02:07:47;11.01;84.76
69208;SHT31;70114;47.690;8.898;2023-10-19T02:10:12;11.01;84.96
69208;SHT31;70114;47.690;8.898;2023-10-19T02:12:38;11.00;85.15
69208;SHT31;70114;47.690;8.898;2023-10-19T02:15:08;11.00;84.76
69208;SHT31;70114;47.690;8.898;2023-10-19T02:17:33;11.00;84.66
69208;SHT31;70114;47.690;8.898;2023-10-19T02:19:59;11.02;84.48
69208;SHT31;70114;47.690;8.898;2023-10-19T02:22:24;10.91;85.06
69208;SHT31;70114;47.690;8.898;2023-10-19T02:24:50;10.98;84.66
69208;SHT31;70114;47.690;8.898;2023-10-19T02:27:15;10.98;84.69
69208;SHT31;70114;47.690;8.898;2023-10-19T02:29:40;11.02;84.35
69208;SHT31;70114;47.690;8.898;2023-10-19T02:32:07;11.08;84.48
69208;SHT31;70114;47.690;8.898;2023-10-19T02:34:32;11.10;84.53
69208;SHT31;70114;47.690;8.898;2023-10-19T02:37:00;11.10;84.68
69208;SHT31;70114;47.690;8.898;2023-10-19T02:39:26;11.08;84.75
69208;SHT31;70114;47.690;8.898;2023-10-19T02:41:53;11.10;84.66
69208;SHT31;70114;47.690;8.898;2023-10-19T02:44:20;11.05;84.90
69208;SHT31;70114;47.690;8.898;2023-10-19T02:46:55;11.11;84.49
69208;SHT31;70114;47.690;8.898;2023-10-19T02:49:34;11.12;84.83
69208;SHT31;70114;47.690;8.898;2023-10-19T02:52:03;11.14;84.32
69208;SHT31;70114;47.690;8.898;2023-10-19T02:54:29;11.15;84.63
69208;SHT31;70114;47.690;8.898;2023-10-19T02:56:58;11.15;84.54
69208;SHT31;70114;47.690;8.898;2023-10-19T02:59:27;11.15;84.43
69208;SHT31;70114;47.690;8.898;2023-10-19T03:01:59;11.12;84.99
69208;SHT31;70114;47.690;8.898;2023-10-19T03:04:38;11.16;84.79
69208;SHT31;70114;47.690;8.898;2023-10-19T03:07:04;11.14;84.78
69208;SHT31;70114;47.690;8.898;2023-10-19T03:09:30;11.08;85.33
69208;SHT31;70114;47.690;8.898;2023-10-19T03:11:57;11.08;84.56
69208;SHT31;70114;47.690;8.898;2023-10-19T03:14:26;11.14;84.79
69208;SHT31;70114;47.690;8.898;2023-10-19T03:16:52;11.14;84.73
69208;SHT31;70114;47.690;8.898;2023-10-19T03:19:20;11.07;85.39
69208;SHT31;70114;47.690;8.898;2023-10-19T03:21:45;11.15;84.53
69208;SHT31;70114;47.690;8.898;2023-10-19T03:24:14;11.02;85.65
69208;SHT31;70114;47.690;8.898;2023-10-19T03:27:11;11.08;84.92
69208;SHT31;70114;47.690;8.898;2023-10-19T03:29:51;11.10;84.91
69208;SHT31;70114;47.690;8.898;2023-10-19T03:32:21;11.11;84.89
69208;SHT31;70114;47.690;8.898;2023-10-19T03:34:54;10.94;85.96
69208;SHT31;70114;47.690;8.898;2023-10-19T03:37:25;11.04;85.07
69208;SHT31;70114;47.690;8.898;2023-10-19T03:39:51;11.02;85.23
69208;SHT31;70114;47.690;8.898;2023-10-19T03:42:17;10.93;85.93
69208;SHT31;70114;47.690;8.898;2023-10-19T03:44:42;11.01;85.36
69208;SHT31;70114;47.690;8.898;2023-10-19T03:47:14;11.01;85.36
69208;SHT31;70114;47.690;8.898;2023-10-19T03:49:44;11.04;85.27
69208;SHT31;70114;47.690;8.898;2023-10-19T03:52:09;11.01;85.35
69208;SHT31;70114;47.690;8.898;2023-10-19T03:54:35;11.04;85.56
69208;SHT31;70114;47.690;8.898;2023-10-19T03:57:08;11.08;85.15
69208;SHT31;70114;47.690;8.898;2023-10-19T03:59:51;11.11;85.07
69208;SHT31;70114;47.690;8.898;2023-10-19T04:02:22;11.01;85.98
69208;SHT31;70114;47.690;8.898;2023-10-19T04:04:53;11.01;86.04
69208;SHT31;70114;47.690;8.898;2023-10-19T04:07:20;11.10;85.33
69208;SHT31;70114;47.690;8.898;2023-10-19T04:09:50;11.04;85.84
69208;SHT31;70114;47.690;8.898;2023-10-19T04:12:35;11.07;85.79
69208;SHT31;70114;47.690;8.898;2023-10-19T04:15:03;11.10;85.55
69208;SHT31;70114;47.690;8.898;2023-10-19T04:17:35;11.14;85.11
69208;SHT31;70114;47.690;8.898;2023-10-19T04:20:02;11.14;85.39
69208;SHT31;70114;47.690;8.898;2023-10-19T04:22:49;11.01;86.43
69208;SHT31;70114;47.690;8.898;2023-10-19T04:25:16;11.05;85.99
69208;SHT31;70114;47.690;8.898;2023-10-19T04:27:43;11.11;85.58
69208;SHT31;70114;47.690;8.898;2023-10-19T04:30:09;11.15;85.75
69208;SHT31;70114;47.690;8.898;2023-10-19T04:32:44;11.15;85.60
69208;SHT31;70114;47.690;8.898;2023-10-19T04:35:10;11.18;85.83
69208;SHT31;70114;47.690;8.898;2023-10-19T04:37:35;11.16;85.55
69208;SHT31;70114;47.690;8.898;2023-10-19T04:40:01;11.18;86.11
69208;SHT31;70114;47.690;8.898;2023-10-19T04:42:27;11.21;85.97
69208;SHT31;70114;47.690;8.898;2023-10-19T04:44:54;11.22;85.70
69208;SHT31;70114;47.690;8.898;2023-10-19T04:47:19;11.25;85.87
69208;SHT31;70114;47.690;8.898;2023-10-19T04:49:45;11.22;85.98
69208;SHT31;70114;47.690;8.898;2023-10-19T04:52:10;11.26;85.47
69208;SHT31;70114;47.690;8.898;2023-10-19T04:54:36;11.26;85.25
69208;SHT31;70114;47.690;8.898;2023-10-19T04:57:02;11.22;86.27
69208;SHT31;70114;47.690;8.898;2023-10-19T04:59:28;11.25;86.06
69208;SHT31;70114;47.690;8.898;2023-10-19T05:01:58;11.28;86.11
69208;SHT31;70114;47.690;8.898;2023-10-19T05:04:23;11.26;86.49
69208;SHT31;70114;47.690;8.898;2023-10-19T05:06:49;11.31;85.87
69208;SHT31;70114;47.690;8.898;2023-10-19T05:09:14;11.21;86.97
69208;SHT31;70114;47.690;8.898;2023-10-19T05:11:40;11.29;86.73
69208;SHT31;70114;47.690;8.898;2023-10-19T05:14:06;11.29;86.76
69208;SHT31;70114;47.690;8.898;2023-10-19T05:16:31;11.32;85.72
69208;SHT31;70114;47.690;8.898;2023-10-19T05:18:57;11.29;87.00
69208;SHT31;70114;47.690;8.898;2023-10-19T05:21:22;11.35;85.89
69208;SHT31;70114;47.690;8.898;2023-10-19T05:23:47;11.31;87.23
69208;SHT31;70114;47.690;8.898;2023-10-19T05:26:13;11.35;86.26
69208;SHT31;70114;47.690;8.898;2023-10-19T05:28:40;11.33;87.02
69208;SHT31;70114;47.690;8.898;2023-10-19T05:31:08;11.32;87.14
69208;SHT31;70114;47.690;8.898;2023-10-19T05:33:33;11.32;87.61
69208;SHT31;70114;47.690;8.898;2023-10-19T05:35:59;11.39;86.99
69208;SHT31;70114;47.690;8.898;2023-10-19T05:38:26;11.42;87.74
69208;SHT31;70114;47.690;8.898;2023-10-19T05:40:52;11.46;87.03
69208;SHT31;70114;47.690;8.898;2023-10-19T05:43:18;11.35;87.76
69208;SHT31;70114;47.690;8.898;2023-10-19T05:45:43;11.40;87.54
69208;SHT31;70114;47.690;8.898;2023-10-19T05:48:10;11.43;87.86
69208;SHT31;70114;47.690;8.898;2023-10-19T05:50:36;11.44;87.07
69208;SHT31;70114;47.690;8.898;2023-10-19T05:53:03;11.47;86.80
69208;SHT31;70114;47.690;8.898;2023-10-19T05:55:29;11.49;87.07
69208;SHT31;70114;47.690;8.898;2023-10-19T05:57:54;11.55;87.87
69208;SHT31;70114;47.690;8.898;2023-10-19T06:00:20;11.52;88.47
69208;SHT31;70114;47.690;8.898;2023-10-19T06:02:47;11.58;87.72
69208;SHT31;70114;47.690;8.898;2023-10-19T06:05:16;11.62;87.88
69208;SHT31;70114;47.690;8.898;2023-10-19T06:07:43;11.62;87.32
69208;SHT31;70114;47.690;8.898;2023-10-19T06:10:11;11.63;86.47
69208;SHT31;70114;47.690;8.898;2023-10-19T06:12:44;11.66;86.44
69208;SHT31;70114;47.690;8.898;2023-10-19T06:15:11;11.67;86.40
69208;SHT31;70114;47.690;8.898;2023-10-19T06:17:40;11.70;86.53
69208;SHT31;70114;47.690;8.898;2023-10-19T06:20:10;11.71;86.34
69208;SHT31;70114;47.690;8.898;2023-10-19T06:22:47;11.73;86.48
69208;SHT31;70114;47.690;8.898;2023-10-19T06:25:45;11.71;87.27
69208;SHT31;70114;47.690;8.898;2023-10-19T06:28:12;11.76;87.13
69208;SHT31;70114;47.690;8.898;2023-10-19T06:30:39;11.77;86.43
69208;SHT31;70114;47.690;8.898;2023-10-19T06:33:06;11.77;87.05
69208;SHT31;70114;47.690;8.898;2023-10-19T06:35:32;11.80;86.69
69208;SHT31;70114;47.690;8.898;2023-10-19T06:37:59;11.79;86.75
69208;SHT31;70114;47.690;8.898;2023-10-19T06:40:25;11.84;86.94
69208;SHT31;70114;47.690;8.898;2023-10-19T06:42:52;11.88;86.71
69208;SHT31;70114;47.690;8.898;2023-10-19T06:45:20;11.88;86.04
69208;SHT31;70114;47.690;8.898;2023-10-19T06:47:47;11.90;86.19
69208;SHT31;70114;47.690;8.898;2023-10-19T06:50:14;11.87;88.57
69208;SHT31;70114;47.690;8.898;2023-10-19T06:52:44;11.88;87.91
69208;SHT31;70114;47.690;8.898;2023-10-19T06:55:12;11.93;88.55
69208;SHT31;70114;47.690;8.898;2023-10-19T06:57:43;11.91;88.78
69208;SHT31;70114;47.690;8.898;2023-10-19T07:00:13;11.93;87.79
69208;SHT31;70114;47.690;8.898;2023-10-19T07:02:48;11.95;88.16
69208;SHT31;70114;47.690;8.898;2023-10-19T07:05:14;12.01;87.84
69208;SHT31;70114;47.690;8.898;2023-10-19T07:07:44;12.07;88.49
69208;SHT31;70114;47.690;8.898;2023-10-19T07:10:11;12.07;89.86
69208;SHT31;70114;47.690;8.898;2023-10-19T07:12:45;12.13;88.43
69208;SHT31;70114;47.690;8.898;2023-10-19T07:15:12;12.16;88.49
69208;SHT31;70114;47.690;8.898;2023-10-19T07:17:41;12.21;88.85
69208;SHT31;70114;47.690;8.898;2023-10-19T07:20:07;12.20;88.94
69208;SHT31;70114;47.690;8.898;2023-10-19T07:22:35;12.20;90.20
69208;SHT31;70114;47.690;8.898;2023-10-19T07:25:07;12.28;89.45
69208;SHT31;70114;47.690;8.898;2023-10-19T07:27:34;12.36;89.04
69208;SHT31;70114;47.690;8.898;2023-10-19T07:30:01;12.39;89.18
69208;SHT31;70114;47.690;8.898;2023-10-19T07:32:26;12.44;89.54
69208;SHT31;70114;47.690;8.898;2023-10-19T07:34:53;12.45;89.09
69208;SHT31;70114;47.690;8.898;2023-10-19T07:37:21;12.46;88.46
69208;SHT31;70114;47.690;8.898;2023-10-19T07:39:47;12.49;88.14
69208;SHT31;70114;47.690;8.898;2023-10-19T07:42:14;12.50;88.46
69208;SHT31;70114;47.690;8.898;2023-10-19T07:44:40;12.45;89.21
69208;SHT31;70114;47.690;8.898;2023-10-19T07:47:05;12.45;88.38
69208;SHT31;70114;47.690;8.898;2023-10-19T07:49:33;12.48;88.38
69208;SHT31;70114;47.690;8.898;2023-10-19T07:51:58;12.46;88.10
69208;SHT31;70114;47.690;8.898;2023-10-19T07:54:24;12.50;87.95
69208;SHT31;70114;47.690;8.898;2023-10-19T07:56:49;12.55;87.87
69208;SHT31;70114;47.690;8.898;2023-10-19T07:59:16;12.55;87.34
69208;SHT31;70114;47.690;8.898;2023-10-19T08:01:41;12.48;87.69
69208;SHT31;70114;47.690;8.898;2023-10-19T08:04:07;12.60;87.44
69208;SHT31;70114;47.690;8.898;2023-10-19T08:06:32;12.65;87.79
69208;SHT31;70114;47.690;8.898;2023-10-19T08:08:58;12.70;87.78
69208;SHT31;70114;47.690;8.898;2023-10-19T08:11:25;12.70;88.26
69208;SHT31;70114;47.690;8.898;2023-10-19T08:13:50;12.76;87.97
69208;SHT31;70114;47.690;8.898;2023-10-19T08:19:30;12.80;88.11
69208;SHT31;70114;47.690;8.898;2023-10-19T08:21:58;12.82;88.50
69208;SHT31;70114;47.690;8.898;2023-10-19T08:24:23;12.94;88.32
69208;SHT31;70114;47.690;8.898;2023-10-19T08:26:49;13.02;88.01
69208;SHT31;70114;47.690;8.898;2023-10-19T08:29:16;13.11;87.77
69208;SHT31;70114;47.690;8.898;2023-10-19T08:31:42;13.18;87.68
69208;SHT31;70114;47.690;8.898;2023-10-19T08:34:10;13.30;87.19
69208;SHT31;70114;47.690;8.898;2023-10-19T08:36:37;13.37;87.30
69208;SHT31;70114;47.690;8.898;2023-10-19T08:39:07;13.44;87.50
69208;SHT31;70114;47.690;8.898;2023-10-19T08:41:34;13.51;87.79
69208;SHT31;70114;47.690;8.898;2023-10-19T08:44:04;13.72;87.47
69208;SHT31;70114;47.690;8.898;2023-10-19T08:46:45;13.75;88.42
69208;SHT31;70114;47.690;8.898;2023-10-19T08:49:15;13.90;88.22
69208;SHT31;70114;47.690;8.898;2023-10-19T08:51:44;13.86;87.79
69208;SHT31;70114;47.690;8.898;2023-10-19T08:54:12;14.06;86.71
69208;SHT31;70114;47.690;8.898;2023-10-19T08:56:38;14.16;86.29
69208;SHT31;70114;47.690;8.898;2023-10-19T08:59:09;14.26;86.67
69208;SHT31;70114;47.690;8.898;2023-10-19T09:01:38;14.20;86.99
69208;SHT31;70114;47.690;8.898;2023-10-19T09:04:03;14.09;87.81
69208;SHT31;70114;47.690;8.898;2023-10-19T09:06:35;14.09;87.79
69208;SHT31;70114;47.690;8.898;2023-10-19T09:09:11;14.07;86.70
69208;SHT31;70114;47.690;8.898;2023-10-19T09:11:47;14.06;86.02
69208;SHT31;70114;47.690;8.898;2023-10-19T09:14:15;14.03;86.26
69208;SHT31;70114;47.690;8.898;2023-10-19T09:16:54;14.05;86.27
69208;SHT31;70114;47.690;8.898;2023-10-19T09:22:10;14.17;87.28
69208;SHT31;70114;47.690;8.898;2023-10-19T09:24:48;14.31;86.39
69208;SHT31;70114;47.690;8.898;2023-10-19T09:27:18;14.44;86.16
69208;SHT31;70114;47.690;8.898;2023-10-19T09:29:43;14.51;86.00
69208;SHT31;70114;47.690;8.898;2023-10-19T09:32:18;14.72;85.38
69208;SHT31;70114;47.690;8.898;2023-10-19T09:34:45;14.85;85.71
69208;SHT31;70114;47.690;8.898;2023-10-19T09:37:11;14.99;85.69
69208;SHT31;70114;47.690;8.898;2023-10-19T09:39:37;15.03;85.86
69208;SHT31;70114;47.690;8.898;2023-10-19T09:42:07;15.07;85.87
69208;SHT31;70114;47.690;8.898;2023-10-19T09:47:29;15.13;84.68
69208;SHT31;70114;47.690;8.898;2023-10-19T09:49:53;15.24;84.76
69208;SHT31;70114;47.690;8.898;2023-10-19T09:52:19;15.33;84.35
69208;SHT31;70114;47.690;8.898;2023-10-19T09:54:52;15.34;85.54
69208;SHT31;70114;47.690;8.898;2023-10-19T09:57:27;15.23;84.70
69208;SHT31;70114;47.690;8.898;2023-10-19T10:00:00;15.16;84.03
69208;SHT31;70114;47.690;8.898;2023-10-19T10:02:34;14.84;84.15
69208;SHT31;70114;47.690;8.898;2023-10-19T10:05:00;14.44;85.08
69208;SHT31;70114;47.690;8.898;2023-10-19T10:07:26;13.97;85.46
69208;SHT31;70114;47.690;8.898;2023-10-19T10:09:54;14.23;85.62
69208;SHT31;70114;47.690;8.898;2023-10-19T10:12:24;14.33;84.88
69208;SHT31;70114;47.690;8.898;2023-10-19T10:15:04;14.03;84.44
69208;SHT31;70114;47.690;8.898;2023-10-19T10:17:36;13.87;86.21
69208;SHT31;70114;47.690;8.898;2023-10-19T10:20:28;14.20;85.53
69208;SHT31;70114;47.690;8.898;2023-10-19T10:23:16;14.51;84.93
69208;SHT31;70114;47.690;8.898;2023-10-19T10:25:45;14.71;84.95
69208;SHT31;70114;47.690;8.898;2023-10-19T10:28:14;14.93;84.03
69208;SHT31;70114;47.690;8.898;2023-10-19T10:31:09;15.12;83.82
69208;SHT31;70114;47.690;8.898;2023-10-19T10:33:40;15.20;83.21
69208;SHT31;70114;47.690;8.898;2023-10-19T10:36:06;15.22;83.63
69208;SHT31;70114;47.690;8.898;2023-10-19T10:38:35;15.33;82.85
69208;SHT31;70114;47.690;8.898;2023-10-19T10:41:01;15.41;81.99
69208;SHT31;70114;47.690;8.898;2023-10-19T10:43:27;15.46;83.18
69208;SHT31;70114;47.690;8.898;2023-10-19T10:46:02;15.51;82.23
69208;SHT31;70114;47.690;8.898;2023-10-19T10:48:28;15.64;82.18
69208;SHT31;70114;47.690;8.898;2023-10-19T10:50:53;15.81;82.75
69208;SHT31;70114;47.690;8.898;2023-10-19T10:53:19;15.84;82.25
69208;SHT31;70114;47.690;8.898;2023-10-19T10:55:45;15.75;82.56
69208;SHT31;70114;47.690;8.898;2023-10-19T10:58:15;15.87;81.92
69208;SHT31;70114;47.690;8.898;2023-10-19T11:00:44;16.08;81.61
69208;SHT31;70114;47.690;8.898;2023-10-19T11:03:12;16.15;80.85
69208;SHT31;70114;47.690;8.898;2023-10-19T11:05:39;16.39;82.38
69208;SHT31;70114;47.690;8.898;2023-10-19T11:08:17;16.29;82.13
69208;SHT31;70114;47.690;8.898;2023-10-19T11:10:45;16.39;81.30
69208;SHT31;70114;47.690;8.898;2023-10-19T11:13:15;16.59;81.48
69208;SHT31;70114;47.690;8.898;2023-10-19T11:15:52;16.60;81.51
69208;SHT31;70114;47.690;8.898;2023-10-19T11:18:41;16.68;81.44
69208;SHT31;70114;47.690;8.898;2023-10-19T11:21:13;16.81;79.57
69208;SHT31;70114;47.690;8.898;2023-10-19T11:23:46;16.95;79.72
69208;SHT31;70114;47.690;8.898;2023-10-19T11:26:13;17.04;78.95
69208;SHT31;70114;47.690;8.898;2023-10-19T11:28:40;17.11;79.06
69208;SHT31;70114;47.690;8.898;2023-10-19T11:33:39;17.36;78.04
69208;SHT31;70114;47.690;8.898;2023-10-19T11:36:05;17.43;77.31
69208;SHT31;70114;47.690;8.898;2023-10-19T11:38:30;17.38;77.74
69208;SHT31;70114;47.690;8.898;2023-10-19T11:40:56;17.49;77.57
69208;SHT31;70114;47.690;8.898;2023-10-19T11:43:21;17.50;77.62
69208;SHT31;70114;47.690;8.898;2023-10-19T11:45:47;17.45;77.78
69208;SHT31;70114;47.690;8.898;2023-10-19T11:48:12;17.50;78.04
69208;SHT31;70114;47.690;8.898;2023-10-19T11:50:38;17.38;77.92
69208;SHT31;70114;47.690;8.898;2023-10-19T11:53:04;17.28;78.33
69208;SHT31;70114;47.690;8.898;2023-10-19T11:55:30;17.26;78.61
69208;SHT31;70114;47.690;8.898;2023-10-19T11:57:56;17.23;78.94
69208;SHT31;70114;47.690;8.898;2023-10-19T12:00:24;17.16;79.92
69208;SHT31;70114;47.690;8.898;2023-10-19T12:02:58;17.08;78.88
69208;SHT31;70114;47.690;8.898;2023-10-19T12:05:24;17.08;78.66
69208;SHT31;70114;47.690;8.898;2023-10-19T12:07:50;17.18;78.19
69208;SHT31;70114;47.690;8.898;2023-10-19T12:10:17;17.16;78.41
69208;SHT31;70114;47.690;8.898;2023-10-19T12:12:45;16.94;78.70
69208;SHT31;70114;47.690;8.898;2023-10-19T12:15:11;16.95;78.89
69208;SHT31;70114;47.690;8.898;2023-10-19T12:17:37;16.95;78.51
69208;SHT31;70114;47.690;8.898;2023-10-19T12:20:03;17.02;78.66
69208;SHT31;70114;47.690;8.898;2023-10-19T12:22:32;17.02;79.32
69208;SHT31;70114;47.690;8.898;2023-10-19T12:25:04;17.15;78.59
69208;SHT31;70114;47.690;8.898;2023-10-19T12:27:30;17.28;77.73
69208;SHT31;70114;47.690;8.898;2023-10-19T12:29:56;17.25;77.50
69208;SHT31;70114;47.690;8.898;2023-10-19T12:32:24;17.33;77.00
69208;SHT31;70114;47.690;8.898;2023-10-19T12:34:49;17.23;76.99
69208;SHT31;70114;47.690;8.898;2023-10-19T12:37:27;17.22;77.36
69208;SHT31;70114;47.690;8.898;2023-10-19T12:39:53;17.31;76.44
69208;SHT31;70114;47.690;8.898;2023-10-19T12:42:20;17.23;77.09
69208;SHT31;70114;47.690;8.898;2023-10-19T12:44:48;17.43;77.05
69208;SHT31;70114;47.690;8.898;2023-10-19T12:47:13;17.57;76.86
69208;SHT31;70114;47.690;8.898;2023-10-19T12:49:45;17.53;76.79
69208;SHT31;70114;47.690;8.898;2023-10-19T12:52:11;17.76;76.84
69208;SHT31;70114;47.690;8.898;2023-10-19T12:54:37;17.88;76.13
69208;SHT31;70114;47.690;8.898;2023-10-19T12:57:04;18.22;75.82
69208;SHT31;70114;47.690;8.898;2023-10-19T12:59:35;18.25;75.19
69208;SHT31;70114;47.690;8.898;2023-10-19T13:02:03;18.25;74.99
69208;SHT31;70114;47.690;8.898;2023-10-19T13:04:28;18.11;76.28
69208;SHT31;70114;47.690;8.898;2023-10-19T13:06:56;18.19;75.30
69208;SHT31;70114;47.690;8.898;2023-10-19T13:09:26;18.17;75.00
69208;SHT31;70114;47.690;8.898;2023-10-19T13:11:58;18.12;75.70
69208;SHT31;70114;47.690;8.898;2023-10-19T13:14:27;18.18;75.52
69208;SHT31;70114;47.690;8.898;2023-10-19T13:16:53;18.00;76.43
69208;SHT31;70114;47.690;8.898;2023-10-19T13:19:22;18.08;76.85
69208;SHT31;70114;47.690;8.898;2023-10-19T13:21:51;18.34;76.29
69208;SHT31;70114;47.690;8.898;2023-10-19T13:24:20;18.89;76.17
69208;SHT31;70114;47.690;8.898;2023-10-19T13:26:47;19.45;74.35
69208;SHT31;70114;47.690;8.898;2023-10-19T13:29:13;19.38;73.28
69208;SHT31;70114;47.690;8.898;2023-10-19T13:31:52;19.42;73.66
69208;SHT31;70114;47.690;8.898;2023-10-19T13:34:17;19.02;74.39
69208;SHT31;70114;47.690;8.898;2023-10-19T13:36:43;18.99;74.10
69208;SHT31;70114;47.690;8.898;2023-10-19T13:39:14;19.04;73.42
69208;SHT31;70114;47.690;8.898;2023-10-19T13:44:51;18.92;73.95
69208;SHT31;70114;47.690;8.898;2023-10-19T13:47:26;18.63;75.13
69208;SHT31;70114;47.690;8.898;2023-10-19T13:50:02;18.55;75.31
69208;SHT31;70114;47.690;8.898;2023-10-19T13:52:28;18.46;75.69
69208;SHT31;70114;47.690;8.898;2023-10-19T13:54:53;18.59;75.63
69208;SHT31;70114;47.690;8.898;2023-10-19T13:57:19;19.11;73.71
69208;SHT31;70114;47.690;8.898;2023-10-19T13:59:55;19.15;73.47
69208;SHT31;70114;47.690;8.898;2023-10-19T14:02:57;18.99;73.72
69208;SHT31;70114;47.690;8.898;2023-10-19T14:05:36;18.94;73.56
69208;SHT31;70114;47.690;8.898;2023-10-19T14:08:17;18.96;73.45
69208;SHT31;70114;47.690;8.898;2023-10-19T14:14:25;18.63;74.47
69208;SHT31;70114;47.690;8.898;2023-10-19T14:23:37;18.32;75.87
69208;SHT31;70114;47.690;8.898;2023-10-19T14:29:32;18.17;75.83
69208;SHT31;70114;47.690;8.898;2023-10-19T14:31:58;18.27;75.55
69208;SHT31;70114;47.690;8.898;2023-10-19T14:34:23;18.42;75.58
69208;SHT31;70114;47.690;8.898;2023-10-19T14:36:48;18.51;75.79
69208;SHT31;70114;47.690;8.898;2023-10-19T14:39:14;18.75;75.03
69208;SHT31;70114;47.690;8.898;2023-10-19T14:41:41;18.92;74.38
69208;SHT31;70114;47.690;8.898;2023-10-19T14:44:07;19.03;74.08
69208;SHT31;70114;47.690;8.898;2023-10-19T14:46:32;19.08;74.01
69208;SHT31;70114;47.690;8.898;2023-10-19T14:48:58;19.30;73.76
69208;SHT31;70114;47.690;8.898;2023-10-19T14:51:23;19.57;73.34
69208;SHT31;70114;47.690;8.898;2023-10-19T14:53:48;19.87;71.98
69208;SHT31;70114;47.690;8.898;2023-10-19T14:56:14;20.24;70.85
69208;SHT31;70114;47.690;8.898;2023-10-19T14:58:39;20.51;69.08
69208;SHT31;70114;47.690;8.898;2023-10-19T15:01:05;20.68;67.87
69208;SHT31;70114;47.690;8.898;2023-10-19T15:03:33;20.68;67.64
69208;SHT31;70114;47.690;8.898;2023-10-19T15:06:00;20.72;67.43
69208;SHT31;70114;47.690;8.898;2023-10-19T15:08:25;20.72;68.00
69208;SHT31;70114;47.690;8.898;2023-10-19T15:10:54;20.59;66.94
69208;SHT31;70114;47.690;8.898;2023-10-19T15:13:19;20.52;67.10
69208;SHT31;70114;47.690;8.898;2023-10-19T15:15:45;20.43;67.70
69208;SHT31;70114;47.690;8.898;2023-10-19T15:18:10;20.23;67.73
69208;SHT31;70114;47.690;8.898;2023-10-19T15:20:36;20.09;67.79
69208;SHT31;70114;47.690;8.898;2023-10-19T15:23:01;19.94;68.11
69208;SHT31;70114;47.690;8.898;2023-10-19T15:25:27;19.82;68.99
69208;SHT31;70114;47.690;8.898;2023-10-19T15:27:53;19.63;68.69
69208;SHT31;70114;47.690;8.898;2023-10-19T15:30:19;19.50;69.16
69208;SHT31;70114;47.690;8.898;2023-10-19T15:32:48;19.34;69.82
69208;SHT31;70114;47.690;8.898;2023-10-19T15:35:15;19.20;70.38
69208;SHT31;70114;47.690;8.898;2023-10-19T15:37:42;19.07;70.63
69208;SHT31;70114;47.690;8.898;2023-10-19T15:40:09;18.92;71.17
69208;SHT31;70114;47.690;8.898;2023-10-19T15:42:40;18.82;71.69
69208;SHT31;70114;47.690;8.898;2023-10-19T15:45:08;18.63;72.28
69208;SHT31;70114;47.690;8.898;2023-10-19T15:47:34;18.52;72.50
69208;SHT31;70114;47.690;8.898;2023-10-19T15:50:00;18.42;72.53
69208;SHT31;70114;47.690;8.898;2023-10-19T15:52:26;18.29;72.89
69208;SHT31;70114;47.690;8.898;2023-10-19T15:54:57;18.15;72.90
69208;SHT31;70114;47.690;8.898;2023-10-19T15:57:23;18.09;73.05
69208;SHT31;70114;47.690;8.898;2023-10-19T15:59:50;18.01;73.28
69208;SHT31;70114;47.690;8.898;2023-10-19T16:02:16;17.90;73.39
69208;SHT31;70114;47.690;8.898;2023-10-19T16:04:43;17.83;73.78
69208;SHT31;70114;47.690;8.898;2023-10-19T16:07:10;17.73;73.98
69208;SHT31;70114;47.690;8.898;2023-10-19T16:09:36;17.67;74.25
69208;SHT31;70114;47.690;8.898;2023-10-19T16:12:02;17.60;74.42